Time;durP1;ratioP1;P1;durP2;ratioP2;P2;SDS_P1;SDS_P2;PMS_P1;PMS_P2;Temp;Humidity;BMP_temperature;BMP_pressure;BME280_temperature;BME280_humidity;BME280_pressure;Samples;Min_cycle;Max_cycle;Signal;HPM_P1;HPM_P2
2022/06/18 00:02:51;;;;;;;;;;;;;;;;;;10421391;28;19926;-66
2022/06/18 00:07:53;;;;;;;;;;;;;;;;;;10420674;28;19925;-66
2022/06/18 00:18:16;;;;;;;;;;;;;;;;;;10418939;28;19929;-66
2022/06/18 00:23:18;;;;;;;;;;;;;;;;;;10419299;28;19925;-67
2022/06/18 00:28:20;;;;;;;;;;;;;;;;;;10419372;28;20398;-67
2022/06/18 00:33:22;;;;;;;;;;;;;;;;;;10419738;28;19931;-67
2022/06/18 00:38:24;;;;;;;;;;;;;;;;;;10419206;28;19931;-67
2022/06/18 00:43:27;;;;;;;;;;;;;;;;;;10418812;28;19925;-67
2022/06/18 00:48:29;;;;;;;;;;;;;;;;;;10418589;28;20288;-66
2022/06/18 00:53:31;;;;;;;;;;;;;;;;;;10417854;28;19925;-67
2022/06/18 00:58:33;;;;;;;;;;;;;;;;;;10418129;28;19931;-66
2022/06/18 01:03:35;;;;;;;;;;;;;;;;;;10417942;28;19929;-67
2022/06/18 01:08:37;;;;;;;;;;;;;;;;;;10418414;28;20012;-67
2022/06/18 01:13:39;;;;;;;;;;;;;;;;;;10417417;28;19925;-67
2022/06/18 01:18:42;;;;;;;;;;;;;;;;;;10417536;28;19932;-67
2022/06/18 01:23:44;;;;;;;;;;;;;;;;;;10417637;28;19925;-67
2022/06/18 01:28:46;;;;;;;;;;;;;;;;;;10416843;28;19936;-66
2022/06/18 01:33:49;;;;;;;;;;;;;;;;;;10416948;28;19925;-67
2022/06/18 01:38:51;;;;;;;;;;;;;;;;;;10416561;28;19932;-67
2022/06/18 01:43:53;;;;;;;;;;;;;;;;;;10417143;28;19925;-67
2022/06/18 01:48:55;;;;;;;;;;;;;;;;;;10416247;28;20029;-67
2022/06/18 01:53:57;;;;;;;;;;;;;;;;;;10416576;28;19940;-66
2022/06/18 01:58:59;;;;;;;;;;;;;;;;;;10415919;28;20275;-67
2022/06/18 02:04:01;;;;;;;;;;;;;;;;;;10416352;28;19926;-66
2022/06/18 02:09:03;;;;;;;;;;;;;;;;;;10415620;28;20494;-67
2022/06/18 02:14:05;;;;;;;;;;;;;;;;;;10416015;28;19929;-67
2022/06/18 02:19:07;;;;;;;;;;;;;;;;;;10416130;28;19932;-66
2022/06/18 02:24:10;;;;;;;;;;;;;;;;;;10414834;28;19940;-66
2022/06/18 02:29:12;;;;;;;;;;;;;;;;;;10415197;28;20377;-67
2022/06/18 02:34:14;;;;;;;;;;;;;;;;;;10415741;28;19932;-67
2022/06/18 02:39:17;;;;;;;;;;;;;;;;;;10419356;28;19999;-67
2022/06/18 02:44:19;;;;;;;;;;;;;;;;;;10423190;28;20284;-67
2022/06/18 02:49:21;;;;;;;;;;;;;;;;;;10423144;28;20372;-67
2022/06/18 02:54:23;;;;;;;;;;;;;;;;;;10422891;28;20384;-67
2022/06/18 02:59:25;;;;;;;;;;;;;;;;;;10423326;28;19936;-66
2022/06/18 03:04:27;;;;;;;;;;;;;;;;;;10423139;28;19929;-67
2022/06/18 03:09:30;;;;;;;;;;;;;;;;;;10423024;28;19931;-67
2022/06/18 03:14:32;;;;;;;;;;;;;;;;;;10422277;28;19925;-67
2022/06/18 03:19:34;;;;;;;;;;;;;;;;;;10422003;28;20399;-67
2022/06/18 03:24:36;;;;;;;;;;;;;;;;;;10422613;28;19936;-69
2022/06/18 03:29:38;;;;;;;;;;;;;;;;;;10422268;28;19925;-67
2022/06/18 03:34:40;;;;;;;;;;;;;;;;;;10421350;28;20331;-67
2022/06/18 03:39:42;;;;;;;;;;;;;;;;;;10421185;28;19925;-67
2022/06/18 03:44:44;;;;;;;;;;;;;;;;;;10421235;28;19925;-67
2022/06/18 03:49:47;;;;;;;;;;;;;;;;;;10420663;28;19929;-67
2022/06/18 03:54:49;;;;;;;;;;;;;;;;;;10421261;28;19931;-67
2022/06/18 03:59:51;;;;;;;;;;;;;;;;;;10420469;28;19925;-68
2022/06/18 04:04:53;;;;;;;;;;;;;;;;;;10420325;28;19925;-67
2022/06/18 04:09:56;;;;;;;;;;;;;;;;;;10420688;28;19925;-67
2022/06/18 04:14:58;;;;;;;;;;;;;;;;;;10420413;28;19925;-66
2022/06/18 04:20:00;;;;;;;;;;;;;;;;;;10419098;28;19931;-67
2022/06/18 04:25:02;;;;;;;;;;;;;;;;;;10420047;28;19940;-66
2022/06/18 04:30:04;;;;;;;;;;;;;;;;;;10418695;28;19932;-67
2022/06/18 04:35:07;;;;;;;;;;;;;;;;;;10419949;28;19929;-67
2022/06/18 04:40:09;;;;;;;;;;;;;;;;;;10418847;28;19932;-67
2022/06/18 04:45:11;;;;;;;;;;;;;;;;;;10418672;28;19925;-66
2022/06/18 04:50:13;;;;;;;;;;;;;;;;;;10419119;28;19933;-66
2022/06/18 04:55:15;;;;;;;;;;;;;;;;;;10418790;28;19932;-66
2022/06/18 05:00:17;;;;;;;;;;;;;;;;;;10418389;28;19935;-66
2022/06/18 05:05:19;;;;;;;;;;;;;;;;;;10418559;28;19925;-66
2022/06/18 05:10:21;;;;;;;;;;;;;;;;;;10417737;28;20364;-66
2022/06/18 05:15:23;;;;;;;;;;;;;;;;;;10418118;28;19931;-67
2022/06/18 05:20:25;;;;;;;;;;;;;;;;;;10417977;28;19932;-66
2022/06/18 05:25:27;;;;;;;;;;;;;;;;;;10417712;28;19929;-66
2022/06/18 05:30:29;;;;;;;;;;;;;;;;;;10417035;28;20282;-66
2022/06/18 05:35:31;;;;;;;;;;;;;;;;;;10417348;28;19984;-67
2022/06/18 05:40:34;;;;;;;;;;;;;;;;;;10417261;28;19932;-66
2022/06/18 05:45:36;;;;;;;;;;;;;;;;;;10416178;28;20284;-66
2022/06/18 05:50:44;;;;;;;;;;;;;;;;;;10416259;28;20438;-66
2022/06/18 05:55:46;;;;;;;;;;;;;;;;;;10416092;28;19925;-66
2022/06/18 06:00:48;;;;;;;;;;;;;;;;;;10416039;28;19936;-66
2022/06/18 06:05:50;;;;;;;;;;;;;;;;;;10416434;28;19932;-66
2022/06/18 06:16:13;;;;;;;;;;;;;;;;;;10414657;28;19931;-66
2022/06/18 06:21:15;;;;;;;;;;;;;;;;;;10415474;28;20321;-67
2022/06/18 06:26:17;;;;;;;;;;;;;;;;;;10415996;28;19925;-66
2022/06/18 06:31:19;;;;;;;;;;;;;;;;;;10414665;28;19925;-66
2022/06/18 06:36:21;;;;;;;;;;;;;;;;;;10415727;28;19925;-67
2022/06/18 06:41:23;;;;;;;;;;;;;;;;;;10415734;28;19932;-66
2022/06/18 06:46:26;;;;;;;;;;;;;;;;;;10414955;28;20292;-66
2022/06/18 06:51:28;;;;;;;;;;;;;;;;;;10415636;28;19979;-66
2022/06/18 07:01:52;;;;;;;;;;;;;;;;;;10430059;28;19932;-66
2022/06/18 07:06:56;;;;;;;;;;;;;;;;;;10456554;28;19925;-66
2022/06/18 07:11:58;;;;;;;;;;;;;;;;;;10456403;28;19929;-67
2022/06/18 07:17:00;;;;;;;;;;;;;;;;;;10455571;28;19980;-67
2022/06/18 07:22:02;;;;;;;;;;;;;;;;;;10437082;28;19976;-67
2022/06/18 07:27:04;;;;;;;;;;;;;;;;;;10420270;28;20360;-67
2022/06/18 07:32:06;;;;;;;;;;;;;;;;;;10418986;28;19936;-67
2022/06/18 07:37:08;;;;;;;;;;;;;;;;;;10414656;28;19935;-67
2022/06/18 07:42:10;;;;;;;;;;;;;;;;;;10414655;28;19936;-67
2022/06/18 07:47:12;;;;;;;;;;;;;;;;;;10414724;28;19925;-67
2022/06/18 07:52:15;;;;;;;;;;;;;;;;;;10414514;28;19968;-67
2022/06/18 07:57:17;;;;;;;;;;;;;;;;;;10422437;22;19929;-64
2022/06/18 08:02:19;;;;;;;;;;;;;;;;;;10414072;28;20020;-65
2022/06/18 08:07:22;;;;;;;;;;;;;;;;;;10413453;28;20713;-65
2022/06/18 08:12:24;;;;;;;;;;;;;;;;;;10415564;28;19929;-65
2022/06/18 08:17:26;;;;;;;;;;;;;;;;;;10414803;28;19925;-65
2022/06/18 08:22:28;;;;;;;;;;;;;;;;;;10413004;28;19956;-64
2022/06/18 08:27:30;;;;;;;;;;;;;;;;;;10413272;28;20052;-65
2022/06/18 08:32:32;;;;;;;;;;;;;;;;;;10412413;28;20292;-65
2022/06/18 08:37:34;;;;;;;;;;;;;;;;;;10421938;28;19943;-65
2022/06/18 08:42:36;;;;;;;;;;;;;;;;;;10453904;28;19936;-64
2022/06/18 08:47:38;;;;;;;;;;;;;;;;;;10453009;28;19929;-64
2022/06/18 08:52:40;;;;;;;;;;;;;;;;;;10452552;28;19928;-65
2022/06/18 08:57:42;;;;;;;;;;;;;;;;;;10452244;28;19936;-65
2022/06/18 09:02:46;;;;;;;;;;;;;;;;;;10456518;28;19931;-65
2022/06/18 09:08:08;;;;;;;;;;;;;;;;;;10458129;28;19939;-65
2022/06/18 09:13:10;;;;;;;;;;;;;;;;;;10459616;28;19931;-65
2022/06/18 09:18:13;;;;;;;;;;;;;;;;;;10456830;28;19931;-65
2022/06/18 09:23:15;;;;;;;;;;;;;;;;;;10458243;28;19924;-65
2022/06/18 09:28:17;;;;;;;;;;;;;;;;;;10459019;28;19932;-65
2022/06/18 09:33:20;;;;;;;;;;;;;;;;;;10457245;28;19936;-65
2022/06/18 09:38:22;;;;;;;;;;;;;;;;;;10456968;28;19924;-65
2022/06/18 09:43:24;;;;;;;;;;;;;;;;;;10458446;28;19925;-65
2022/06/18 09:48:26;;;;;;;;;;;;;;;;;;10457467;28;19925;-65
2022/06/18 09:53:28;;;;;;;;;;;;;;;;;;10452558;28;19936;-65
2022/06/18 09:58:30;;;;;;;;;;;;;;;;;;10455482;28;20387;-65
2022/06/18 10:08:53;;;;;;;;;;;;;;;;;;10420306;28;19925;-65
2022/06/18 10:13:57;;;;;;;;;;;;;;;;;;10416402;28;19932;-65
2022/06/18 10:18:59;;;;;;;;;;;;;;;;;;10417357;28;19925;-65
2022/06/18 10:24:02;;;;;;;;;;;;;;;;;;10415580;28;20368;-65
2022/06/18 10:29:04;;;;;;;;;;;;;;;;;;10415292;28;20399;-65
2022/06/18 10:34:06;;;;;;;;;;;;;;;;;;10420548;28;19932;-64
2022/06/18 10:39:08;;;;;;;;;;;;;;;;;;10415470;28;19925;-65
2022/06/18 10:44:10;;;;;;;;;;;;;;;;;;10414838;28;20402;-65
2022/06/18 10:49:15;;;;;;;;;;;;;;;;;;10414591;28;20384;-65
2022/06/18 10:54:17;;;;;;;;;;;;;;;;;;10421141;28;19925;-65
2022/06/18 10:59:19;;;;;;;;;;;;;;;;;;10421727;28;20261;-65
2022/06/18 11:04:22;;;;;;;;;;;;;;;;;;10423402;28;20023;-65
2022/06/18 11:09:24;;;;;;;;;;;;;;;;;;10422578;28;19925;-65
2022/06/18 11:14:27;;;;;;;;;;;;;;;;;;10434007;28;19925;-64
2022/06/18 11:19:29;;;;;;;;;;;;;;;;;;10424123;28;19929;-66
2022/06/18 11:24:31;;;;;;;;;;;;;;;;;;10421307;28;19929;-66
2022/06/18 11:29:33;;;;;;;;;;;;;;;;;;10447219;28;19954;-65
2022/06/18 11:34:35;;;;;;;;;;;;;;;;;;10456651;28;19929;-66
2022/06/18 11:39:37;;;;;;;;;;;;;;;;;;10462629;28;19925;-63
2022/06/18 11:44:39;;;;;;;;;;;;;;;;;;10462063;28;19924;-63
2022/06/18 11:49:41;;;;;;;;;;;;;;;;;;10462979;28;19932;-63
2022/06/18 11:54:43;;;;;;;;;;;;;;;;;;10462748;28;19925;-64
2022/06/18 11:59:49;;;;;;;;;;;;;;;;;;10462029;28;19925;-63
2022/06/18 12:04:51;;;;;;;;;;;;;;;;;;10423967;28;19933;-63
2022/06/18 12:09:53;;;;;;;;;;;;;;;;;;10420203;28;20261;-63
2022/06/18 12:14:55;;;;;;;;;;;;;;;;;;10420692;28;19932;-63
2022/06/18 12:19:57;;;;;;;;;;;;;;;;;;10420695;28;19932;-64
2022/06/18 12:25:00;;;;;;;;;;;;;;;;;;10419692;28;19925;-64
2022/06/18 12:30:03;;;;;;;;;;;;;;;;;;10420155;28;19926;-66
2022/06/18 12:35:05;;;;;;;;;;;;;;;;;;10419879;28;19991;-64
2022/06/18 12:40:07;;;;;;;;;;;;;;;;;;10419720;28;19932;-64
2022/06/18 12:45:09;;;;;;;;;;;;;;;;;;10418992;28;20280;-64
2022/06/18 12:50:11;;;;;;;;;;;;;;;;;;10419309;28;19940;-64
2022/06/18 12:55:13;;;;;;;;;;;;;;;;;;10419067;28;19925;-64
2022/06/18 13:00:15;;;;;;;;;;;;;;;;;;10418143;28;20383;-64
2022/06/18 13:05:19;;;;;;;;;;;;;;;;;;10418727;28;19925;-63
2022/06/18 13:10:21;;;;;;;;;;;;;;;;;;10418556;28;19980;-63
2022/06/18 13:15:27;;;;;;;;;;;;;;;;;;10417651;28;19925;-64
2022/06/18 13:20:30;;;;;;;;;;;;;;;;;;10418233;28;19964;-64
2022/06/18 13:30:53;;;;;;;;;;;;;;;;;;10420060;28;19976;-64
2022/06/18 13:35:55;;;;;;;;;;;;;;;;;;10421288;28;20290;-64
2022/06/18 13:40:57;;;;;;;;;;;;;;;;;;10458683;28;19924;-64
2022/06/18 13:46:00;;;;;;;;;;;;;;;;;;10458382;28;19932;-64
2022/06/18 13:51:02;;;;;;;;;;;;;;;;;;10454372;28;19929;-64
2022/06/18 13:56:04;;;;;;;;;;;;;;;;;;10431455;28;20307;-64
2022/06/18 14:01:06;;;;;;;;;;;;;;;;;;10425726;28;19925;-66
2022/06/18 14:06:08;;;;;;;;;;;;;;;;;;10415984;28;20376;-66
2022/06/18 14:11:10;;;;;;;;;;;;;;;;;;10429896;28;19939;-66
2022/06/18 14:16:12;;;;;;;;;;;;;;;;;;10416442;28;19932;-65
2022/06/18 14:21:15;;;;;;;;;;;;;;;;;;10416752;28;19926;-65
2022/06/18 14:26:18;;;;;;;;;;;;;;;;;;10440807;28;19925;-65
2022/06/18 14:31:20;;;;;;;;;;;;;;;;;;10426640;28;19928;-65
2022/06/18 14:36:23;;;;;;;;;;;;;;;;;;10421480;28;19925;-65
2022/06/18 14:41:51;;;;;;;;;;;;;;;;;;10427858;28;19913;-65
2022/06/18 14:46:53;;;;;;;;;;;;;;;;;;10425710;28;19925;-66
2022/06/18 14:51:55;;;;;;;;;;;;;;;;;;10433022;28;19944;-65
2022/06/18 14:56:57;;;;;;;;;;;;;;;;;;10461541;28;19932;-65
2022/06/18 15:01:59;;;;;;;;;;;;;;;;;;10462854;28;19925;-65
2022/06/18 15:07:02;;;;;;;;;;;;;;;;;;10461284;28;19983;-66
2022/06/18 15:12:04;;;;;;;;;;;;;;;;;;10461363;28;20307;-65
2022/06/18 15:23:19;;;;;;;;;;;;;;;;;;10443326;28;20299;-65
2022/06/18 15:27:48;;;;;;;;;;;;;;;;;;10446995;28;19932;-65
2022/06/18 15:32:50;;;;;;;;;;;;;;;;;;10431705;28;19936;-65
2022/06/18 15:37:52;;;;;;;;;;;;;;;;;;10433459;28;19924;-65
2022/06/18 15:42:55;;;;;;;;;;;;;;;;;;10442876;28;19932;-65
2022/06/18 15:47:58;;;;;;;;;;;;;;;;;;10448669;28;19931;-66
2022/06/18 15:53:00;;;;;;;;;;;;;;;;;;10461297;28;20007;-65
2022/06/18 15:58:03;;;;;;;;;;;;;;;;;;10453203;28;19925;-65
2022/06/18 16:03:05;;;;;;;;;;;;;;;;;;10462477;28;19931;-65
2022/06/18 16:08:07;;;;;;;;;;;;;;;;;;10437700;28;20280;-66
2022/06/18 16:13:09;;;;;;;;;;;;;;;;;;10434217;28;20198;-65
2022/06/18 16:18:29;;;;;;;;;;;;;;;;;;10421030;28;19972;-65
2022/06/18 16:23:31;;;;;;;;;;;;;;;;;;10461684;28;19929;-65
2022/06/18 16:28:34;;;;;;;;;;;;;;;;;;10461512;28;19932;-65
2022/06/18 16:33:36;;;;;;;;;;;;;;;;;;10460656;28;19999;-65
2022/06/18 16:38:38;;;;;;;;;;;;;;;;;;10461114;28;19932;-65
2022/06/18 16:43:40;;;;;;;;;;;;;;;;;;10460960;28;19931;-65
2022/06/18 16:48:42;;;;;;;;;;;;;;;;;;10460128;28;20376;-65
2022/06/18 16:53:44;;;;;;;;;;;;;;;;;;10431506;28;19925;-65
2022/06/18 16:58:46;;;;;;;;;;;;;;;;;;10417289;28;20292;-65
2022/06/18 17:03:49;;;;;;;;;;;;;;;;;;10423517;28;20398;-65
2022/06/18 17:08:51;;;;;;;;;;;;;;;;;;10418580;28;19931;-65
2022/06/18 17:13:54;;;;;;;;;;;;;;;;;;10448768;28;19924;-65
2022/06/18 17:18:56;;;;;;;;;;;;;;;;;;10417465;28;20394;-65
2022/06/18 17:34:44;;;;;;;;;;;;;;;;;;10458990;28;19929;-65
2022/06/18 17:39:46;;;;;;;;;;;;;;;;;;10458652;28;19932;-65
2022/06/18 17:44:48;;;;;;;;;;;;;;;;;;10458188;28;19925;-65
2022/06/18 17:49:52;;;;;;;;;;;;;;;;;;10455291;28;21551;-65
2022/06/18 17:54:54;;;;;;;;;;;;;;;;;;10458221;28;19932;-65
2022/06/18 17:59:56;;;;;;;;;;;;;;;;;;10457169;28;19931;-65
2022/06/18 18:04:58;;;;;;;;;;;;;;;;;;10456342;28;19925;-65
2022/06/18 18:10:01;;;;;;;;;;;;;;;;;;10456002;28;19971;-65
2022/06/18 18:15:03;;;;;;;;;;;;;;;;;;10437443;28;19925;-70
2022/06/18 18:20:10;;;;;;;;;;;;;;;;;;10424493;28;20273;-69
2022/06/18 18:25:12;;;;;;;;;;;;;;;;;;10411381;28;19929;-69
2022/06/18 18:30:14;;;;;;;;;;;;;;;;;;10411986;28;19936;-69
2022/06/18 18:35:16;;;;;;;;;;;;;;;;;;10415874;28;19925;-69
2022/06/18 18:40:19;;;;;;;;;;;;;;;;;;10414712;28;19932;-69
2022/06/18 18:45:21;;;;;;;;;;;;;;;;;;10414601;28;19932;-69
2022/06/18 18:50:24;;;;;;;;;;;;;;;;;;10434218;28;20023;-69
2022/06/18 18:55:26;;;;;;;;;;;;;;;;;;10425636;28;20248;-69
2022/06/18 19:00:28;;;;;;;;;;;;;;;;;;10412610;28;20384;-70
2022/06/18 19:05:30;;;;;;;;;;;;;;;;;;10414496;28;19925;-69
2022/06/18 19:10:32;;;;;;;;;;;;;;;;;;10415286;28;19928;-69
2022/06/18 19:15:34;;;;;;;;;;;;;;;;;;10414546;28;20376;-69
2022/06/18 19:20:36;;;;;;;;;;;;;;;;;;10431812;28;19925;-69
2022/06/18 19:25:38;;;;;;;;;;;;;;;;;;10447911;28;19925;-69
2022/06/18 19:30:40;;;;;;;;;;;;;;;;;;10421162;28;20384;-69
2022/06/18 19:35:43;;;;;;;;;;;;;;;;;;10421702;28;20051;-69
2022/06/18 19:40:45;;;;;;;;;;;;;;;;;;10421864;28;19925;-69
2022/06/18 19:45:47;;;;;;;;;;;;;;;;;;10421970;28;19926;-69
2022/06/18 19:50:49;;;;;;;;;;;;;;;;;;10421242;28;19925;-69
2022/06/18 19:55:51;;;;;;;;;;;;;;;;;;10421520;28;19925;-69
2022/06/18 20:00:54;;;;;;;;;;;;;;;;;;10420373;28;19925;-69
2022/06/18 20:05:56;;;;;;;;;;;;;;;;;;10421067;28;20403;-69
2022/06/18 20:10:58;;;;;;;;;;;;;;;;;;10420484;28;19932;-69
2022/06/18 20:16:00;;;;;;;;;;;;;;;;;;10428500;22;19925;-73
2022/06/18 20:21:02;;;;;;;;;;;;;;;;;;10420676;28;19925;-73
2022/06/18 20:26:05;;;;;;;;;;;;;;;;;;10444789;28;20287;-74
2022/06/18 20:31:07;;;;;;;;;;;;;;;;;;10421683;28;19956;-74
2022/06/18 20:36:09;;;;;;;;;;;;;;;;;;10457694;28;20360;-74
2022/06/18 20:41:11;;;;;;;;;;;;;;;;;;10450811;28;19984;-73
2022/06/18 20:46:13;;;;;;;;;;;;;;;;;;10422546;28;19952;-74
2022/06/18 20:51:15;;;;;;;;;;;;;;;;;;10419394;28;20016;-74
2022/06/18 21:01:38;;;;;;;;;;;;;;;;;;10382160;28;19925;-73
2022/06/18 21:06:42;;;;;;;;;;;;;;;;;;10418847;28;19925;-74
2022/06/18 21:11:45;;;;;;;;;;;;;;;;;;10415593;28;19925;-73
2022/06/18 21:16:47;;;;;;;;;;;;;;;;;;10418296;28;19932;-75
2022/06/18 21:21:49;;;;;;;;;;;;;;;;;;10420938;28;19932;-75
2022/06/18 21:26:51;;;;;;;;;;;;;;;;;;10459280;28;19929;-74
2022/06/18 21:37:14;;;;;;;;;;;;;;;;;;10458137;28;19936;-74
2022/06/18 21:42:16;;;;;;;;;;;;;;;;;;10458225;28;19936;-75
2022/06/18 21:47:19;;;;;;;;;;;;;;;;;;10458069;28;19925;-75
2022/06/18 21:52:22;;;;;;;;;;;;;;;;;;10455437;28;19931;-75
2022/06/18 21:57:24;;;;;;;;;;;;;;;;;;10458096;28;19929;-76
2022/06/18 22:02:26;;;;;;;;;;;;;;;;;;10457975;28;19924;-74
2022/06/18 22:07:28;;;;;;;;;;;;;;;;;;10456461;28;19932;-76
2022/06/18 22:17:51;;;;;;;;;;;;;;;;;;10457581;28;19932;-76
2022/06/18 22:22:53;;;;;;;;;;;;;;;;;;10457483;28;19932;-75
2022/06/18 22:27:55;;;;;;;;;;;;;;;;;;10432693;28;19925;-75
2022/06/18 22:32:57;;;;;;;;;;;;;;;;;;10456676;28;19925;-75
2022/06/18 22:37:59;;;;;;;;;;;;;;;;;;10456412;28;20363;-75
2022/06/18 22:43:02;;;;;;;;;;;;;;;;;;10417050;28;19932;-75
2022/06/18 22:48:05;;;;;;;;;;;;;;;;;;10417633;28;19925;-77
2022/06/18 22:58:27;;;;;;;;;;;;;;;;;;10463301;28;19929;-75
2022/06/18 23:03:29;;;;;;;;;;;;;;;;;;10463548;28;19925;-75
2022/06/18 23:08:31;;;;;;;;;;;;;;;;;;10463139;28;19925;-75
2022/06/18 23:13:33;;;;;;;;;;;;;;;;;;10463716;28;20395;-74
2022/06/18 23:18:35;;;;;;;;;;;;;;;;;;10463471;28;19924;-75
2022/06/18 23:23:38;;;;;;;;;;;;;;;;;;10464141;28;19925;-75
2022/06/18 23:28:42;;;;;;;;;;;;;;;;;;10464046;28;19925;-75
2022/06/18 23:33:45;;;;;;;;;;;;;;;;;;10463787;28;19939;-74
2022/06/18 23:38:47;;;;;;;;;;;;;;;;;;10439264;28;19925;-75
2022/06/18 23:43:49;;;;;;;;;;;;;;;;;;10421401;28;20276;-75
2022/06/18 23:48:51;;;;;;;;;;;;;;;;;;10430979;28;19925;-75
2022/06/18 23:53:53;;;;;;;;;;;;;;;;;;10462399;28;20505;-75
2022/06/18 23:58:55;;;;;;;;;;;;;;;;;;10462221;28;20394;-75
